sensor_id;sensor_type;location;lat;lon;timestamp;P1;durP1;ratioP1;P2;durP2;ratioP2
1533;SDS011;760;48.822;9.304;2023-02-28T05:04:28;5.00;;;4.50;;
1533;SDS011;760;48.822;9.304;2023-02-28T05:06:53;2.90;;;2.10;;
1533;SDS011;760;48.822;9.304;2023-02-28T05:09:20;3.95;;;3.58;;
1533;SDS011;760;48.822;9.304;2023-02-28T05:11:45;3.30;;;2.80;;
1533;SDS011;760;48.822;9.304;2023-02-28T05:14:13;4.60;;;3.43;;
1533;SDS011;760;48.822;9.304;2023-02-28T05:16:39;3.70;;;3.40;;
1533;SDS011;760;48.822;9.304;2023-02-28T05:19:04;2.53;;;2.33;;
1533;SDS011;760;48.822;9.304;2023-02-28T05:21:34;9.03;;;3.10;;
1533;SDS011;760;48.822;9.304;2023-02-28T05:24:03;3.40;;;2.53;;
1533;SDS011;760;48.822;9.304;2023-02-28T05:26:33;2.78;;;2.45;;
1533;SDS011;760;48.822;9.304;2023-02-28T05:29:00;3.50;;;3.25;;
1533;SDS011;760;48.822;9.304;2023-02-28T05:31:25;4.47;;;2.50;;
1533;SDS011;760;48.822;9.304;2023-02-28T05:33:51;5.73;;;3.47;;
1533;SDS011;760;48.822;9.304;2023-02-28T05:36:17;3.42;;;3.08;;
1533;SDS011;760;48.822;9.304;2023-02-28T05:38:45;2.83;;;2.63;;
1533;SDS011;760;48.822;9.304;2023-02-28T05:41:12;8.80;;;3.10;;
1533;SDS011;760;48.822;9.304;2023-02-28T05:43:37;4.00;;;3.50;;
1533;SDS011;760;48.822;9.304;2023-02-28T05:46:06;3.60;;;3.30;;
1533;SDS011;760;48.822;9.304;2023-02-28T05:48:34;3.30;;;3.00;;
1533;SDS011;760;48.822;9.304;2023-02-28T05:51:01;3.25;;;2.95;;
1533;SDS011;760;48.822;9.304;2023-02-28T05:53:28;3.88;;;3.50;;
1533;SDS011;760;48.822;9.304;2023-02-28T05:55:54;3.00;;;2.60;;
1533;SDS011;760;48.822;9.304;2023-02-28T05:58:20;3.83;;;3.20;;
1533;SDS011;760;48.822;9.304;2023-02-28T06:00:46;4.90;;;3.30;;
1533;SDS011;760;48.822;9.304;2023-02-28T06:03:12;2.67;;;2.47;;
1533;SDS011;760;48.822;9.304;2023-02-28T06:05:38;3.40;;;3.10;;
1533;SDS011;760;48.822;9.304;2023-02-28T06:08:03;4.50;;;3.80;;
1533;SDS011;760;48.822;9.304;2023-02-28T06:10:31;4.25;;;3.70;;
1533;SDS011;760;48.822;9.304;2023-02-28T06:13:00;3.58;;;3.22;;
1533;SDS011;760;48.822;9.304;2023-02-28T06:15:29;4.43;;;4.00;;
1533;SDS011;760;48.822;9.304;2023-02-28T06:17:55;3.15;;;2.78;;
1533;SDS011;760;48.822;9.304;2023-02-28T06:20:22;2.90;;;2.30;;
1533;SDS011;760;48.822;9.304;2023-02-28T06:22:48;3.35;;;3.05;;
1533;SDS011;760;48.822;9.304;2023-02-28T06:25:16;3.53;;;3.22;;
1533;SDS011;760;48.822;9.304;2023-02-28T06:27:41;3.63;;;3.33;;
1533;SDS011;760;48.822;9.304;2023-02-28T06:30:08;4.28;;;2.90;;
1533;SDS011;760;48.822;9.304;2023-02-28T06:32:36;3.58;;;2.92;;
1533;SDS011;760;48.822;9.304;2023-02-28T06:35:02;4.23;;;3.83;;
1533;SDS011;760;48.822;9.304;2023-02-28T06:37:28;6.63;;;3.03;;
1533;SDS011;760;48.822;9.304;2023-02-28T06:39:55;8.60;;;4.35;;
1533;SDS011;760;48.822;9.304;2023-02-28T06:42:21;5.07;;;2.83;;
1533;SDS011;760;48.822;9.304;2023-02-28T06:44:50;5.28;;;3.40;;
1533;SDS011;760;48.822;9.304;2023-02-28T06:47:16;3.08;;;2.80;;
1533;SDS011;760;48.822;9.304;2023-02-28T06:49:42;4.00;;;3.30;;
1533;SDS011;760;48.822;9.304;2023-02-28T06:52:10;5.70;;;4.32;;
1533;SDS011;760;48.822;9.304;2023-02-28T06:54:36;3.50;;;2.90;;
1533;SDS011;760;48.822;9.304;2023-02-28T06:57:01;3.38;;;3.08;;
1533;SDS011;760;48.822;9.304;2023-02-28T06:59:27;4.43;;;3.93;;
1533;SDS011;760;48.822;9.304;2023-02-28T07:01:53;4.00;;;3.60;;
1533;SDS011;760;48.822;9.304;2023-02-28T07:04:19;3.10;;;2.88;;
1533;SDS011;760;48.822;9.304;2023-02-28T07:06:45;3.78;;;3.55;;
1533;SDS011;760;48.822;9.304;2023-02-28T07:09:11;6.90;;;4.97;;
1533;SDS011;760;48.822;9.304;2023-02-28T07:11:37;4.83;;;3.90;;
1533;SDS011;760;48.822;9.304;2023-02-28T07:14:02;3.63;;;2.43;;
1533;SDS011;760;48.822;9.304;2023-02-28T07:16:28;4.50;;;4.10;;
1533;SDS011;760;48.822;9.304;2023-02-28T07:18:54;4.13;;;3.03;;
1533;SDS011;760;48.822;9.304;2023-02-28T07:21:20;5.93;;;4.70;;
1533;SDS011;760;48.822;9.304;2023-02-28T07:23:46;6.43;;;3.20;;
1533;SDS011;760;48.822;9.304;2023-02-28T07:26:12;5.23;;;4.73;;
1533;SDS011;760;48.822;9.304;2023-02-28T07:28:42;3.97;;;3.55;;
1533;SDS011;760;48.822;9.304;2023-02-28T07:31:07;5.07;;;3.88;;
1533;SDS011;760;48.822;9.304;2023-02-28T07:33:34;5.43;;;3.90;;
1533;SDS011;760;48.822;9.304;2023-02-28T07:36:04;8.35;;;4.25;;
1533;SDS011;760;48.822;9.304;2023-02-28T07:38:35;5.88;;;4.15;;
1533;SDS011;760;48.822;9.304;2023-02-28T07:41:02;5.15;;;3.97;;
1533;SDS011;760;48.822;9.304;2023-02-28T07:43:33;4.88;;;3.65;;
1533;SDS011;760;48.822;9.304;2023-02-28T07:46:06;6.00;;;4.20;;
1533;SDS011;760;48.822;9.304;2023-02-28T07:48:33;5.82;;;4.07;;
1533;SDS011;760;48.822;9.304;2023-02-28T07:50:59;4.73;;;3.83;;
1533;SDS011;760;48.822;9.304;2023-02-28T07:53:25;6.07;;;5.43;;
1533;SDS011;760;48.822;9.304;2023-02-28T07:55:55;2.95;;;2.65;;
1533;SDS011;760;48.822;9.304;2023-02-28T07:58:22;6.82;;;4.30;;
1533;SDS011;760;48.822;9.304;2023-02-28T08:00:49;5.65;;;4.43;;
1533;SDS011;760;48.822;9.304;2023-02-28T08:03:15;3.90;;;3.60;;
1533;SDS011;760;48.822;9.304;2023-02-28T08:05:42;4.40;;;4.00;;
1533;SDS011;760;48.822;9.304;2023-02-28T08:08:07;10.37;;;6.10;;
1533;SDS011;760;48.822;9.304;2023-02-28T08:10:33;4.67;;;3.70;;
1533;SDS011;760;48.822;9.304;2023-02-28T08:12:59;5.00;;;3.42;;
1533;SDS011;760;48.822;9.304;2023-02-28T08:15:25;5.13;;;3.28;;
1533;SDS011;760;48.822;9.304;2023-02-28T08:17:51;4.80;;;4.10;;
1533;SDS011;760;48.822;9.304;2023-02-28T08:20:18;4.65;;;4.25;;
1533;SDS011;760;48.822;9.304;2023-02-28T08:22:44;3.70;;;3.40;;
1533;SDS011;760;48.822;9.304;2023-02-28T08:25:09;4.57;;;4.13;;
1533;SDS011;760;48.822;9.304;2023-02-28T08:27:35;5.97;;;3.58;;
1533;SDS011;760;48.822;9.304;2023-02-28T08:30:01;3.93;;;3.47;;
1533;SDS011;760;48.822;9.304;2023-02-28T08:32:28;4.75;;;3.53;;
1533;SDS011;760;48.822;9.304;2023-02-28T08:34:53;5.93;;;4.50;;
1533;SDS011;760;48.822;9.304;2023-02-28T08:37:19;4.00;;;3.70;;
1533;SDS011;760;48.822;9.304;2023-02-28T08:39:45;5.38;;;4.03;;
1533;SDS011;760;48.822;9.304;2023-02-28T08:42:10;7.70;;;4.70;;
1533;SDS011;760;48.822;9.304;2023-02-28T08:44:36;4.50;;;4.10;;
1533;SDS011;760;48.822;9.304;2023-02-28T08:47:02;5.87;;;4.17;;
1533;SDS011;760;48.822;9.304;2023-02-28T08:49:27;5.07;;;4.03;;
1533;SDS011;760;48.822;9.304;2023-02-28T08:51:53;4.10;;;3.70;;
1533;SDS011;760;48.822;9.304;2023-02-28T08:54:20;4.93;;;3.40;;
1533;SDS011;760;48.822;9.304;2023-02-28T08:56:46;5.65;;;4.28;;
1533;SDS011;760;48.822;9.304;2023-02-28T08:59:12;4.97;;;3.77;;
1533;SDS011;760;48.822;9.304;2023-02-28T09:01:38;5.50;;;4.70;;
1533;SDS011;760;48.822;9.304;2023-02-28T09:04:03;10.00;;;4.07;;
1533;SDS011;760;48.822;9.304;2023-02-28T09:06:31;4.82;;;4.05;;
1533;SDS011;760;48.822;9.304;2023-02-28T09:08:57;6.40;;;4.90;;
1533;SDS011;760;48.822;9.304;2023-02-28T09:11:24;4.63;;;3.58;;
1533;SDS011;760;48.822;9.304;2023-02-28T09:13:50;5.07;;;4.05;;
1533;SDS011;760;48.822;9.304;2023-02-28T09:16:16;6.20;;;4.73;;
1533;SDS011;760;48.822;9.304;2023-02-28T09:18:42;4.57;;;4.03;;
1533;SDS011;760;48.822;9.304;2023-02-28T09:21:09;4.95;;;4.45;;
1533;SDS011;760;48.822;9.304;2023-02-28T09:23:39;7.75;;;4.38;;
1533;SDS011;760;48.822;9.304;2023-02-28T09:26:05;6.78;;;5.07;;
1533;SDS011;760;48.822;9.304;2023-02-28T09:28:31;4.33;;;3.90;;
1533;SDS011;760;48.822;9.304;2023-02-28T09:30:56;4.17;;;3.63;;
1533;SDS011;760;48.822;9.304;2023-02-28T09:33:23;4.60;;;3.70;;
1533;SDS011;760;48.822;9.304;2023-02-28T09:35:50;3.35;;;3.13;;
1533;SDS011;760;48.822;9.304;2023-02-28T09:38:22;3.65;;;3.40;;
1533;SDS011;760;48.822;9.304;2023-02-28T09:43:25;5.28;;;4.28;;
1533;SDS011;760;48.822;9.304;2023-02-28T09:45:55;5.65;;;4.60;;
1533;SDS011;760;48.822;9.304;2023-02-28T09:48:28;5.72;;;5.05;;
1533;SDS011;760;48.822;9.304;2023-02-28T09:51:03;4.25;;;3.85;;
1533;SDS011;760;48.822;9.304;2023-02-28T09:53:34;6.68;;;4.40;;
1533;SDS011;760;48.822;9.304;2023-02-28T09:56:05;4.57;;;4.15;;
1533;SDS011;760;48.822;9.304;2023-02-28T10:01:17;6.15;;;4.85;;
1533;SDS011;760;48.822;9.304;2023-02-28T10:04:00;4.90;;;4.00;;
1533;SDS011;760;48.822;9.304;2023-02-28T10:06:50;5.53;;;5.03;;
1533;SDS011;760;48.822;9.304;2023-02-28T10:09:24;5.05;;;4.47;;
1533;SDS011;760;48.822;9.304;2023-02-28T10:11:57;4.38;;;3.97;;
1533;SDS011;760;48.822;9.304;2023-02-28T10:14:28;4.82;;;3.88;;
1533;SDS011;760;48.822;9.304;2023-02-28T10:17:04;5.25;;;4.72;;
1533;SDS011;760;48.822;9.304;2023-02-28T10:22:19;7.57;;;5.65;;
1533;SDS011;760;48.822;9.304;2023-02-28T10:24:48;10.65;;;4.78;;
1533;SDS011;760;48.822;9.304;2023-02-28T10:27:21;8.02;;;5.30;;
1533;SDS011;760;48.822;9.304;2023-02-28T10:29:52;4.40;;;3.97;;
1533;SDS011;760;48.822;9.304;2023-02-28T10:32:24;6.78;;;4.55;;
1533;SDS011;760;48.822;9.304;2023-02-28T10:35:00;10.40;;;6.13;;
1533;SDS011;760;48.822;9.304;2023-02-28T10:37:26;5.20;;;4.60;;
1533;SDS011;760;48.822;9.304;2023-02-28T10:39:53;6.72;;;4.90;;
1533;SDS011;760;48.822;9.304;2023-02-28T10:42:25;5.40;;;4.20;;
1533;SDS011;760;48.822;9.304;2023-02-28T10:47:57;7.80;;;4.55;;
1533;SDS011;760;48.822;9.304;2023-02-28T11:01:41;5.80;;;5.30;;
1533;SDS011;760;48.822;9.304;2023-02-28T11:07:05;6.43;;;5.15;;
1533;SDS011;760;48.822;9.304;2023-02-28T11:09:46;7.15;;;5.07;;
1533;SDS011;760;48.822;9.304;2023-02-28T11:12:22;8.68;;;5.20;;
1533;SDS011;760;48.822;9.304;2023-02-28T11:15:02;5.73;;;4.60;;
1533;SDS011;760;48.822;9.304;2023-02-28T11:17:31;5.43;;;4.37;;
1533;SDS011;760;48.822;9.304;2023-02-28T11:19:59;5.47;;;4.97;;
1533;SDS011;760;48.822;9.304;2023-02-28T11:22:32;13.27;;;6.20;;
1533;SDS011;760;48.822;9.304;2023-02-28T11:25:06;4.70;;;4.30;;
1533;SDS011;760;48.822;9.304;2023-02-28T11:27:46;8.68;;;5.13;;
1533;SDS011;760;48.822;9.304;2023-02-28T11:33:31;5.38;;;4.85;;
1533;SDS011;760;48.822;9.304;2023-02-28T11:36:00;7.45;;;5.15;;
1533;SDS011;760;48.822;9.304;2023-02-28T11:38:28;6.00;;;5.00;;
1533;SDS011;760;48.822;9.304;2023-02-28T11:52:17;8.10;;;5.78;;
1533;SDS011;760;48.822;9.304;2023-02-28T11:57:49;5.75;;;5.13;;
1533;SDS011;760;48.822;9.304;2023-02-28T12:12:11;5.88;;;5.30;;
1533;SDS011;760;48.822;9.304;2023-02-28T12:17:22;6.05;;;4.80;;
1533;SDS011;760;48.822;9.304;2023-02-28T12:20:14;8.35;;;5.25;;
1533;SDS011;760;48.822;9.304;2023-02-28T12:22:47;9.60;;;5.93;;
1533;SDS011;760;48.822;9.304;2023-02-28T12:25:29;6.45;;;4.53;;
1533;SDS011;760;48.822;9.304;2023-02-28T12:28:16;5.97;;;4.25;;
1533;SDS011;760;48.822;9.304;2023-02-28T12:31:06;12.45;;;4.45;;
1533;SDS011;760;48.822;9.304;2023-02-28T12:33:44;7.35;;;5.13;;
1533;SDS011;760;48.822;9.304;2023-02-28T12:36:18;5.22;;;4.72;;
1533;SDS011;760;48.822;9.304;2023-02-28T12:44:09;4.97;;;4.38;;
1533;SDS011;760;48.822;9.304;2023-02-28T12:46:47;5.50;;;4.88;;
1533;SDS011;760;48.822;9.304;2023-02-28T12:49:25;6.07;;;4.45;;
1533;SDS011;760;48.822;9.304;2023-02-28T12:51:59;5.05;;;4.10;;
1533;SDS011;760;48.822;9.304;2023-02-28T12:54:32;6.35;;;5.05;;
1533;SDS011;760;48.822;9.304;2023-02-28T12:57:14;6.80;;;5.45;;
1533;SDS011;760;48.822;9.304;2023-02-28T13:10:48;8.80;;;4.53;;
1533;SDS011;760;48.822;9.304;2023-02-28T13:13:25;8.50;;;5.35;;
1533;SDS011;760;48.822;9.304;2023-02-28T13:16:10;6.82;;;4.88;;
1533;SDS011;760;48.822;9.304;2023-02-28T13:18:39;6.38;;;5.00;;
1533;SDS011;760;48.822;9.304;2023-02-28T13:21:09;5.90;;;4.97;;
1533;SDS011;760;48.822;9.304;2023-02-28T13:26:29;7.03;;;5.72;;
1533;SDS011;760;48.822;9.304;2023-02-28T13:34:30;6.43;;;5.18;;
1533;SDS011;760;48.822;9.304;2023-02-28T13:39:45;6.15;;;4.90;;
1533;SDS011;760;48.822;9.304;2023-02-28T13:47:33;5.63;;;4.00;;
1533;SDS011;760;48.822;9.304;2023-02-28T13:58:08;5.00;;;4.60;;
1533;SDS011;760;48.822;9.304;2023-02-28T14:00:50;5.00;;;4.20;;
1533;SDS011;760;48.822;9.304;2023-02-28T14:06:26;5.68;;;4.43;;
1533;SDS011;760;48.822;9.304;2023-02-28T14:08:59;4.35;;;3.80;;
1533;SDS011;760;48.822;9.304;2023-02-28T14:11:33;4.15;;;3.75;;
1533;SDS011;760;48.822;9.304;2023-02-28T14:14:04;4.78;;;3.55;;
1533;SDS011;760;48.822;9.304;2023-02-28T14:16:41;6.22;;;3.60;;
1533;SDS011;760;48.822;9.304;2023-02-28T14:19:14;5.35;;;4.13;;
1533;SDS011;760;48.822;9.304;2023-02-28T14:22:38;5.13;;;3.97;;
1533;SDS011;760;48.822;9.304;2023-02-28T14:24:42;7.82;;;4.72;;
1533;SDS011;760;48.822;9.304;2023-02-28T14:27:26;5.65;;;5.15;;
1533;SDS011;760;48.822;9.304;2023-02-28T14:36:13;5.43;;;4.38;;
1533;SDS011;760;48.822;9.304;2023-02-28T14:38:53;4.70;;;4.30;;
1533;SDS011;760;48.822;9.304;2023-02-28T14:41:32;7.82;;;5.55;;
1533;SDS011;760;48.822;9.304;2023-02-28T14:44:13;5.60;;;4.38;;
1533;SDS011;760;48.822;9.304;2023-02-28T14:46:40;7.00;;;4.10;;
1533;SDS011;760;48.822;9.304;2023-02-28T14:54:30;6.95;;;5.47;;
1533;SDS011;760;48.822;9.304;2023-02-28T14:56:56;6.90;;;5.03;;
1533;SDS011;760;48.822;9.304;2023-02-28T14:59:31;6.40;;;5.17;;
1533;SDS011;760;48.822;9.304;2023-02-28T15:02:19;4.90;;;4.43;;
1533;SDS011;760;48.822;9.304;2023-02-28T15:04:56;5.35;;;4.85;;
1533;SDS011;760;48.822;9.304;2023-02-28T15:07:23;4.63;;;3.90;;
1533;SDS011;760;48.822;9.304;2023-02-28T15:12:55;4.82;;;4.20;;
1533;SDS011;760;48.822;9.304;2023-02-28T15:15:24;5.43;;;4.57;;
1533;SDS011;760;48.822;9.304;2023-02-28T15:18:16;4.80;;;4.40;;
1533;SDS011;760;48.822;9.304;2023-02-28T15:21:06;4.28;;;3.92;;
1533;SDS011;760;48.822;9.304;2023-02-28T15:23:36;4.97;;;4.45;;
1533;SDS011;760;48.822;9.304;2023-02-28T15:26:02;6.03;;;4.70;;
1533;SDS011;760;48.822;9.304;2023-02-28T15:28:29;4.30;;;3.90;;
1533;SDS011;760;48.822;9.304;2023-02-28T15:30:58;5.53;;;5.00;;
1533;SDS011;760;48.822;9.304;2023-02-28T15:33:29;8.05;;;5.30;;
1533;SDS011;760;48.822;9.304;2023-02-28T15:36:06;4.60;;;4.05;;
1533;SDS011;760;48.822;9.304;2023-02-28T15:38:42;5.80;;;3.95;;
1533;SDS011;760;48.822;9.304;2023-02-28T15:41:23;6.43;;;5.13;;
1533;SDS011;760;48.822;9.304;2023-02-28T15:43:57;4.93;;;4.10;;
1533;SDS011;760;48.822;9.304;2023-02-28T15:46:42;7.05;;;4.53;;
1533;SDS011;760;48.822;9.304;2023-02-28T15:49:17;9.70;;;6.22;;
1533;SDS011;760;48.822;9.304;2023-02-28T15:51:45;6.47;;;5.32;;
1533;SDS011;760;48.822;9.304;2023-02-28T15:54:12;6.53;;;5.37;;
1533;SDS011;760;48.822;9.304;2023-02-28T15:56:44;7.47;;;5.80;;
1533;SDS011;760;48.822;9.304;2023-02-28T15:59:19;5.72;;;4.60;;
1533;SDS011;760;48.822;9.304;2023-02-28T16:01:46;4.82;;;4.25;;
1533;SDS011;760;48.822;9.304;2023-02-28T16:04:16;7.97;;;5.38;;
1533;SDS011;760;48.822;9.304;2023-02-28T16:06:44;6.30;;;5.70;;
1533;SDS011;760;48.822;9.304;2023-02-28T16:09:15;5.80;;;4.80;;
1533;SDS011;760;48.822;9.304;2023-02-28T16:11:45;7.70;;;5.05;;
1533;SDS011;760;48.822;9.304;2023-02-28T16:14:14;5.97;;;5.07;;
1533;SDS011;760;48.822;9.304;2023-02-28T16:16:43;5.57;;;4.70;;
1533;SDS011;760;48.822;9.304;2023-02-28T16:19:14;6.55;;;4.60;;
1533;SDS011;760;48.822;9.304;2023-02-28T16:21:39;4.97;;;4.20;;
1533;SDS011;760;48.822;9.304;2023-02-28T16:24:06;7.77;;;6.17;;
1533;SDS011;760;48.822;9.304;2023-02-28T16:26:32;5.32;;;4.82;;
1533;SDS011;760;48.822;9.304;2023-02-28T16:28:59;7.40;;;4.47;;
1533;SDS011;760;48.822;9.304;2023-02-28T16:31:26;5.15;;;4.47;;
1533;SDS011;760;48.822;9.304;2023-02-28T16:33:52;4.40;;;4.00;;
1533;SDS011;760;48.822;9.304;2023-02-28T16:36:20;6.78;;;4.85;;
1533;SDS011;760;48.822;9.304;2023-02-28T16:38:49;5.30;;;4.38;;
1533;SDS011;760;48.822;9.304;2023-02-28T16:41:19;8.63;;;5.67;;
1533;SDS011;760;48.822;9.304;2023-02-28T16:43:51;7.47;;;5.43;;
1533;SDS011;760;48.822;9.304;2023-02-28T16:46:19;4.85;;;4.25;;
1533;SDS011;760;48.822;9.304;2023-02-28T16:48:46;8.77;;;6.28;;
1533;SDS011;760;48.822;9.304;2023-02-28T16:51:16;4.88;;;4.43;;
1533;SDS011;760;48.822;9.304;2023-02-28T16:53:43;6.25;;;4.50;;
1533;SDS011;760;48.822;9.304;2023-02-28T16:56:19;6.15;;;5.03;;
1533;SDS011;760;48.822;9.304;2023-02-28T16:58:47;9.48;;;4.57;;
1533;SDS011;760;48.822;9.304;2023-02-28T17:01:13;5.22;;;4.18;;
1533;SDS011;760;48.822;9.304;2023-02-28T17:03:40;5.88;;;4.60;;
1533;SDS011;760;48.822;9.304;2023-02-28T17:06:06;5.90;;;5.17;;
1533;SDS011;760;48.822;9.304;2023-02-28T17:08:40;5.43;;;4.90;;
1533;SDS011;760;48.822;9.304;2023-02-28T17:11:06;6.37;;;5.03;;
1533;SDS011;760;48.822;9.304;2023-02-28T17:13:33;6.03;;;4.38;;
1533;SDS011;760;48.822;9.304;2023-02-28T17:15:59;5.60;;;4.90;;
1533;SDS011;760;48.822;9.304;2023-02-28T17:18:25;5.05;;;4.55;;
1533;SDS011;760;48.822;9.304;2023-02-28T17:20:53;4.50;;;4.15;;
1533;SDS011;760;48.822;9.304;2023-02-28T17:23:20;9.13;;;6.15;;
1533;SDS011;760;48.822;9.304;2023-02-28T17:25:46;7.83;;;4.73;;
1533;SDS011;760;48.822;9.304;2023-02-28T17:28:18;9.90;;;6.15;;
1533;SDS011;760;48.822;9.304;2023-02-28T17:30:44;5.28;;;4.40;;
1533;SDS011;760;48.822;9.304;2023-02-28T17:33:12;6.68;;;5.45;;
1533;SDS011;760;48.822;9.304;2023-02-28T17:35:38;6.60;;;4.97;;
1533;SDS011;760;48.822;9.304;2023-02-28T17:38:04;6.80;;;4.65;;
1533;SDS011;760;48.822;9.304;2023-02-28T17:40:33;7.00;;;6.20;;
1533;SDS011;760;48.822;9.304;2023-02-28T17:42:59;6.70;;;4.47;;
1533;SDS011;760;48.822;9.304;2023-02-28T17:45:25;7.00;;;5.60;;
1533;SDS011;760;48.822;9.304;2023-02-28T17:47:50;4.87;;;4.43;;
1533;SDS011;760;48.822;9.304;2023-02-28T17:50:17;7.03;;;6.23;;
1533;SDS011;760;48.822;9.304;2023-02-28T17:52:44;6.15;;;5.32;;
1533;SDS011;760;48.822;9.304;2023-02-28T17:55:11;5.68;;;4.30;;
1533;SDS011;760;48.822;9.304;2023-02-28T17:57:37;8.70;;;5.40;;
1533;SDS011;760;48.822;9.304;2023-02-28T18:00:03;6.83;;;5.77;;
1533;SDS011;760;48.822;9.304;2023-02-28T18:02:31;6.38;;;5.30;;
1533;SDS011;760;48.822;9.304;2023-02-28T18:04:57;7.90;;;5.15;;
1533;SDS011;760;48.822;9.304;2023-02-28T18:07:23;7.00;;;6.30;;
1533;SDS011;760;48.822;9.304;2023-02-28T18:09:49;5.85;;;5.35;;
1533;SDS011;760;48.822;9.304;2023-02-28T18:12:15;5.97;;;4.67;;
1533;SDS011;760;48.822;9.304;2023-02-28T18:14:41;6.87;;;5.20;;
1533;SDS011;760;48.822;9.304;2023-02-28T18:17:08;7.85;;;4.40;;
1533;SDS011;760;48.822;9.304;2023-02-28T18:19:37;8.75;;;4.82;;
1533;SDS011;760;48.822;9.304;2023-02-28T18:22:03;7.20;;;5.20;;
1533;SDS011;760;48.822;9.304;2023-02-28T18:24:31;9.90;;;6.60;;
1533;SDS011;760;48.822;9.304;2023-02-28T18:26:57;12.27;;;6.90;;
1533;SDS011;760;48.822;9.304;2023-02-28T18:29:24;8.60;;;6.37;;
1533;SDS011;760;48.822;9.304;2023-02-28T18:31:51;7.70;;;6.43;;
1533;SDS011;760;48.822;9.304;2023-02-28T18:34:17;6.38;;;5.03;;
1533;SDS011;760;48.822;9.304;2023-02-28T18:36:44;4.43;;;3.95;;
1533;SDS011;760;48.822;9.304;2023-02-28T18:39:12;6.38;;;4.93;;
1533;SDS011;760;48.822;9.304;2023-02-28T18:41:38;9.07;;;5.75;;
1533;SDS011;760;48.822;9.304;2023-02-28T18:44:04;7.83;;;5.40;;
1533;SDS011;760;48.822;9.304;2023-02-28T18:46:30;6.00;;;5.33;;
1533;SDS011;760;48.822;9.304;2023-02-28T18:48:55;5.73;;;5.23;;
1533;SDS011;760;48.822;9.304;2023-02-28T18:51:23;6.40;;;5.73;;
1533;SDS011;760;48.822;9.304;2023-02-28T18:53:50;7.07;;;6.43;;
1533;SDS011;760;48.822;9.304;2023-02-28T18:56:17;6.80;;;5.43;;
1533;SDS011;760;48.822;9.304;2023-02-28T18:58:44;7.28;;;6.13;;
1533;SDS011;760;48.822;9.304;2023-02-28T19:01:14;6.13;;;5.17;;
1533;SDS011;760;48.822;9.304;2023-02-28T19:03:43;8.43;;;5.30;;
1533;SDS011;760;48.822;9.304;2023-02-28T19:06:09;7.60;;;5.63;;
1533;SDS011;760;48.822;9.304;2023-02-28T19:08:35;8.88;;;4.75;;
1533;SDS011;760;48.822;9.304;2023-02-28T19:11:08;10.07;;;6.60;;
1533;SDS011;760;48.822;9.304;2023-02-28T19:13:35;7.30;;;5.45;;
1533;SDS011;760;48.822;9.304;2023-02-28T19:16:02;9.63;;;7.20;;
1533;SDS011;760;48.822;9.304;2023-02-28T19:18:29;9.80;;;7.88;;
1533;SDS011;760;48.822;9.304;2023-02-28T19:20:54;16.37;;;9.17;;
1533;SDS011;760;48.822;9.304;2023-02-28T19:23:20;10.67;;;7.90;;
1533;SDS011;760;48.822;9.304;2023-02-28T19:25:45;11.37;;;7.87;;
1533;SDS011;760;48.822;9.304;2023-02-28T19:28:11;8.73;;;5.90;;
1533;SDS011;760;48.822;9.304;2023-02-28T19:30:37;10.30;;;6.93;;
1533;SDS011;760;48.822;9.304;2023-02-28T19:33:03;11.00;;;7.50;;
1533;SDS011;760;48.822;9.304;2023-02-28T19:35:29;7.60;;;6.07;;
1533;SDS011;760;48.822;9.304;2023-02-28T19:37:54;13.50;;;8.43;;
1533;SDS011;760;48.822;9.304;2023-02-28T19:40:20;10.60;;;8.50;;
1533;SDS011;760;48.822;9.304;2023-02-28T19:42:46;13.03;;;9.07;;
1533;SDS011;760;48.822;9.304;2023-02-28T19:45:11;8.57;;;5.77;;
1533;SDS011;760;48.822;9.304;2023-02-28T19:47:39;11.18;;;6.72;;
1533;SDS011;760;48.822;9.304;2023-02-28T19:50:05;8.38;;;6.18;;
1533;SDS011;760;48.822;9.304;2023-02-28T19:52:31;9.73;;;6.32;;
1533;SDS011;760;48.822;9.304;2023-02-28T19:54:58;10.23;;;6.97;;
1533;SDS011;760;48.822;9.304;2023-02-28T19:57:24;10.55;;;7.65;;
1533;SDS011;760;48.822;9.304;2023-02-28T19:59:50;7.30;;;6.50;;
1533;SDS011;760;48.822;9.304;2023-02-28T20:02:16;9.53;;;7.00;;
1533;SDS011;760;48.822;9.304;2023-02-28T20:04:45;11.05;;;7.05;;
1533;SDS011;760;48.822;9.304;2023-02-28T20:07:15;9.32;;;6.03;;
1533;SDS011;760;48.822;9.304;2023-02-28T20:09:44;8.30;;;6.15;;
1533;SDS011;760;48.822;9.304;2023-02-28T20:12:13;9.80;;;7.15;;
1533;SDS011;760;48.822;9.304;2023-02-28T20:14:40;9.75;;;6.60;;
1533;SDS011;760;48.822;9.304;2023-02-28T20:17:06;9.30;;;6.18;;
1533;SDS011;760;48.822;9.304;2023-02-28T20:19:32;10.57;;;7.17;;
1533;SDS011;760;48.822;9.304;2023-02-28T20:21:57;8.63;;;7.27;;
1533;SDS011;760;48.822;9.304;2023-02-28T20:24:24;7.78;;;6.72;;
1533;SDS011;760;48.822;9.304;2023-02-28T20:26:51;10.07;;;6.63;;
1533;SDS011;760;48.822;9.304;2023-02-28T20:29:17;12.57;;;7.65;;
1533;SDS011;760;48.822;9.304;2023-02-28T20:31:43;13.47;;;8.23;;
1533;SDS011;760;48.822;9.304;2023-02-28T20:34:08;8.00;;;7.20;;
1533;SDS011;760;48.822;9.304;2023-02-28T20:36:34;14.20;;;9.03;;
1533;SDS011;760;48.822;9.304;2023-02-28T20:39:00;12.97;;;7.10;;
1533;SDS011;760;48.822;9.304;2023-02-28T20:41:26;14.40;;;7.50;;
1533;SDS011;760;48.822;9.304;2023-02-28T20:43:52;13.30;;;8.03;;
1533;SDS011;760;48.822;9.304;2023-02-28T20:46:26;11.70;;;9.60;;
1533;SDS011;760;48.822;9.304;2023-02-28T20:48:52;13.48;;;8.55;;
1533;SDS011;760;48.822;9.304;2023-02-28T20:51:18;11.23;;;7.80;;
1533;SDS011;760;48.822;9.304;2023-02-28T20:53:44;11.32;;;7.30;;
1533;SDS011;760;48.822;9.304;2023-02-28T20:56:17;12.93;;;8.20;;
1533;SDS011;760;48.822;9.304;2023-02-28T20:58:45;7.97;;;6.25;;
1533;SDS011;760;48.822;9.304;2023-02-28T21:01:16;10.07;;;6.40;;
1533;SDS011;760;48.822;9.304;2023-02-28T21:03:51;13.57;;;7.50;;
1533;SDS011;760;48.822;9.304;2023-02-28T21:06:19;9.60;;;8.60;;
1533;SDS011;760;48.822;9.304;2023-02-28T21:08:46;14.40;;;6.07;;
1533;SDS011;760;48.822;9.304;2023-02-28T21:11:14;9.13;;;7.07;;
1533;SDS011;760;48.822;9.304;2023-02-28T21:13:45;12.70;;;8.10;;
1533;SDS011;760;48.822;9.304;2023-02-28T21:16:12;12.40;;;6.35;;
1533;SDS011;760;48.822;9.304;2023-02-28T21:18:41;7.82;;;6.75;;
1533;SDS011;760;48.822;9.304;2023-02-28T21:21:08;8.20;;;7.00;;
1533;SDS011;760;48.822;9.304;2023-02-28T21:23:36;10.15;;;6.22;;
1533;SDS011;760;48.822;9.304;2023-02-28T21:26:04;11.90;;;7.13;;
1533;SDS011;760;48.822;9.304;2023-02-28T21:28:32;10.88;;;6.85;;
1533;SDS011;760;48.822;9.304;2023-02-28T21:31:07;8.50;;;6.65;;
1533;SDS011;760;48.822;9.304;2023-02-28T21:33:38;13.60;;;6.97;;
1533;SDS011;760;48.822;9.304;2023-02-28T21:36:11;10.82;;;6.35;;
1533;SDS011;760;48.822;9.304;2023-02-28T21:38:39;10.32;;;6.55;;
1533;SDS011;760;48.822;9.304;2023-02-28T21:41:06;16.40;;;7.28;;
1533;SDS011;760;48.822;9.304;2023-02-28T21:43:34;7.00;;;5.10;;
1533;SDS011;760;48.822;9.304;2023-02-28T21:46:03;12.37;;;8.33;;
1533;SDS011;760;48.822;9.304;2023-02-28T21:48:31;12.80;;;7.53;;
1533;SDS011;760;48.822;9.304;2023-02-28T21:50:57;12.02;;;7.90;;
1533;SDS011;760;48.822;9.304;2023-02-28T21:53:26;12.68;;;7.60;;
1533;SDS011;760;48.822;9.304;2023-02-28T21:55:52;10.90;;;7.28;;
1533;SDS011;760;48.822;9.304;2023-02-28T21:58:18;12.03;;;8.10;;
1533;SDS011;760;48.822;9.304;2023-02-28T22:00:43;9.57;;;5.70;;
1533;SDS011;760;48.822;9.304;2023-02-28T22:03:10;9.95;;;6.50;;
1533;SDS011;760;48.822;9.304;2023-02-28T22:05:36;9.43;;;6.38;;
1533;SDS011;760;48.822;9.304;2023-02-28T22:08:02;10.37;;;8.40;;
1533;SDS011;760;48.822;9.304;2023-02-28T22:10:27;7.50;;;6.80;;
1533;SDS011;760;48.822;9.304;2023-02-28T22:12:53;11.40;;;7.77;;
1533;SDS011;760;48.822;9.304;2023-02-28T22:15:19;11.13;;;6.97;;
1533;SDS011;760;48.822;9.304;2023-02-28T22:17:44;12.67;;;7.73;;
1533;SDS011;760;48.822;9.304;2023-02-28T22:20:10;10.57;;;8.55;;
1533;SDS011;760;48.822;9.304;2023-02-28T22:22:39;19.15;;;11.45;;
1533;SDS011;760;48.822;9.304;2023-02-28T22:25:04;10.83;;;7.80;;
1533;SDS011;760;48.822;9.304;2023-02-28T22:27:32;12.80;;;8.88;;
1533;SDS011;760;48.822;9.304;2023-02-28T22:29:58;11.27;;;7.88;;
1533;SDS011;760;48.822;9.304;2023-02-28T22:32:23;10.40;;;7.10;;
1533;SDS011;760;48.822;9.304;2023-02-28T22:34:49;9.27;;;6.97;;
1533;SDS011;760;48.822;9.304;2023-02-28T22:37:15;13.57;;;8.00;;